createdAt,value
2023-02-06T00:02:13.096Z,32.17
2023-02-06T00:04:39.778Z,36.05
2023-02-06T00:07:06.535Z,36.47
2023-02-06T00:09:33.153Z,36.75
2023-02-06T00:11:59.797Z,37.00
2023-02-06T00:14:26.424Z,37.72
2023-02-06T00:16:54.213Z,32.08
2023-02-06T00:19:20.838Z,30.45
2023-02-06T00:21:47.449Z,29.42
2023-02-06T00:24:14.140Z,36.10
2023-02-06T00:26:41.023Z,32.17
2023-02-06T00:29:07.709Z,36.72
2023-02-06T00:31:34.643Z,35.28
2023-02-06T00:34:01.470Z,35.00
2023-02-06T00:36:28.489Z,31.65
2023-02-06T00:38:55.256Z,37.25
2023-02-06T00:41:21.989Z,34.88
2023-02-06T00:43:51.040Z,42.75
2023-02-06T00:46:17.717Z,44.60
2023-02-06T00:48:44.406Z,40.83
2023-02-06T00:51:11.111Z,48.22
2023-02-06T00:53:37.891Z,42.25
2023-02-06T00:56:04.546Z,41.33
2023-02-06T00:58:31.273Z,39.35
2023-02-06T01:00:57.994Z,42.83
2023-02-06T01:03:24.637Z,42.20
2023-02-06T01:05:51.361Z,34.10
2023-02-06T01:08:18.258Z,40.28
2023-02-06T01:10:45.137Z,35.65
2023-02-06T01:13:11.844Z,31.33
2023-02-06T01:15:40.984Z,33.60
2023-02-06T01:18:07.841Z,32.95
2023-02-06T01:20:34.594Z,43.92
2023-02-06T01:23:03.716Z,38.30
2023-02-06T01:25:31.175Z,35.08
2023-02-06T01:27:59.218Z,35.83
2023-02-06T01:30:26.028Z,35.28
2023-02-06T01:32:52.767Z,30.35
2023-02-06T01:35:19.454Z,29.38
2023-02-06T01:37:48.473Z,37.95
2023-02-06T01:40:15.161Z,37.27
2023-02-06T01:42:41.881Z,28.25
2023-02-06T01:45:08.579Z,31.85
2023-02-06T01:47:38.870Z,30.08
2023-02-06T01:50:05.550Z,38.80
2023-02-06T01:52:32.232Z,31.80
2023-02-06T01:54:58.995Z,29.90
2023-02-06T01:57:25.923Z,26.90
2023-02-06T01:59:52.545Z,31.00
2023-02-06T02:02:19.258Z,31.83
2023-02-06T02:04:46.577Z,31.92
2023-02-06T02:07:13.593Z,29.77
2023-02-06T02:09:41.563Z,36.30
2023-02-06T02:12:08.198Z,23.98
2023-02-06T02:14:34.867Z,24.45
2023-02-06T02:17:01.654Z,24.60
2023-02-06T02:19:28.419Z,23.70
2023-02-06T02:21:55.151Z,26.80
2023-02-06T02:24:21.885Z,28.35
2023-02-06T02:26:50.859Z,26.10
2023-02-06T02:29:17.518Z,24.50
2023-02-06T02:31:44.265Z,32.38
2023-02-06T02:34:11.033Z,19.20
2023-02-06T02:36:38.423Z,23.58
2023-02-06T02:39:05.940Z,23.58
2023-02-06T02:41:33.827Z,28.58
2023-02-06T02:44:00.601Z,26.38
2023-02-06T02:46:27.417Z,26.98
2023-02-06T02:48:54.082Z,26.30
2023-02-06T02:51:21.449Z,28.73
2023-02-06T02:53:48.131Z,30.88
2023-02-06T02:56:15.734Z,29.08
2023-02-06T02:58:42.474Z,29.45
2023-02-06T03:01:09.351Z,22.08
2023-02-06T03:03:36.198Z,25.98
2023-02-06T03:06:03.538Z,23.02
2023-02-06T03:08:30.901Z,25.33
2023-02-06T03:10:57.569Z,26.35
2023-02-06T03:13:24.182Z,23.85
2023-02-06T03:15:51.092Z,25.70
2023-02-06T03:18:17.918Z,23.98
2023-02-06T03:20:44.784Z,23.27
2023-02-06T03:23:11.417Z,22.77
2023-02-06T03:25:38.208Z,29.73
2023-02-06T03:28:05.040Z,20.75
2023-02-06T03:30:31.903Z,23.58
2023-02-06T03:32:58.537Z,22.17
2023-02-06T03:35:25.153Z,28.10
2023-02-06T03:37:52.148Z,22.27
2023-02-06T03:40:18.832Z,27.38
2023-02-06T03:42:45.649Z,24.80
2023-02-06T03:45:12.615Z,21.17
2023-02-06T03:47:41.572Z,23.60
2023-02-06T03:50:08.248Z,26.17
2023-02-06T03:52:34.860Z,28.42
2023-02-06T03:55:02.502Z,18.58
2023-02-06T03:57:30.519Z,23.90
2023-02-06T03:59:57.239Z,22.63
2023-02-06T04:02:23.888Z,24.67
2023-02-06T04:04:50.672Z,19.58
2023-02-06T04:07:17.703Z,19.30
2023-02-06T04:09:44.382Z,25.00
2023-02-06T04:12:13.305Z,22.08
2023-02-06T04:14:40.016Z,16.80
2023-02-06T04:17:07.980Z,23.33
2023-02-06T04:19:34.577Z,23.77
2023-02-06T04:22:01.283Z,19.67
2023-02-06T04:24:29.930Z,20.13
2023-02-06T04:26:57.905Z,24.02
2023-02-06T04:29:24.545Z,19.27
2023-02-06T04:31:51.155Z,20.38
2023-02-06T04:34:17.868Z,24.48
2023-02-06T04:36:44.607Z,24.30
2023-02-06T04:39:11.239Z,21.73
2023-02-06T04:41:37.945Z,24.30
2023-02-06T04:44:04.643Z,24.17
2023-02-06T04:46:31.625Z,23.52
2023-02-06T04:48:58.286Z,18.60
2023-02-06T04:51:24.986Z,22.63
2023-02-06T04:53:51.641Z,23.63
2023-02-06T04:56:19.644Z,25.70
2023-02-06T04:58:46.286Z,23.17
2023-02-06T05:01:13.039Z,20.65
2023-02-06T05:03:39.720Z,24.83
2023-02-06T05:06:06.479Z,19.60
2023-02-06T05:08:33.105Z,21.70
2023-02-06T05:10:59.725Z,21.08
2023-02-06T05:13:26.343Z,24.25
2023-02-06T05:15:53.111Z,21.10
2023-02-06T05:18:19.986Z,16.50
2023-02-06T05:20:46.681Z,23.73
2023-02-06T05:23:13.383Z,18.52
2023-02-06T05:25:42.214Z,19.27
2023-02-06T05:28:10.542Z,17.47
2023-02-06T05:30:37.516Z,18.42
2023-02-06T05:33:04.159Z,23.17
2023-02-06T05:35:30.862Z,19.13
2023-02-06T05:37:58.749Z,15.40
2023-02-06T05:40:25.529Z,17.40
2023-02-06T05:42:52.171Z,18.48
2023-02-06T05:45:18.832Z,21.17
2023-02-06T05:47:45.805Z,18.85
2023-02-06T05:50:12.475Z,19.50
2023-02-06T05:52:39.185Z,20.15
2023-02-06T05:55:05.881Z,22.17
2023-02-06T05:57:32.530Z,24.05
2023-02-06T05:59:59.272Z,20.90
2023-02-06T06:02:27.232Z,19.40
2023-02-06T06:04:53.936Z,22.45
2023-02-06T06:07:23.639Z,20.90
2023-02-06T06:09:50.453Z,22.48
2023-02-06T06:12:19.380Z,23.55
2023-02-06T06:14:45.985Z,21.42
2023-02-06T06:17:12.817Z,25.92
2023-02-06T06:19:39.496Z,20.45
2023-02-06T06:22:06.375Z,20.73
2023-02-06T06:24:33.135Z,20.33
2023-02-06T06:27:00.107Z,24.23
2023-02-06T06:29:26.834Z,20.10
2023-02-06T06:31:53.687Z,22.70
2023-02-06T06:34:20.520Z,22.27
2023-02-06T06:36:47.226Z,18.05
2023-02-06T06:39:13.992Z,19.60
2023-02-06T06:41:40.717Z,17.40
2023-02-06T06:44:07.416Z,22.92
2023-02-06T06:46:34.395Z,22.45
2023-02-06T06:49:01.543Z,20.55
2023-02-06T06:51:30.039Z,21.50
2023-02-06T06:53:57.044Z,22.00
2023-02-06T06:56:24.009Z,19.23
2023-02-06T06:58:50.896Z,21.40
2023-02-06T07:01:17.567Z,19.90
2023-02-06T07:03:45.342Z,20.58
2023-02-06T07:06:12.043Z,20.67
2023-02-06T07:08:42.180Z,20.60
2023-02-06T07:11:09.105Z,18.45
2023-02-06T07:13:38.745Z,20.48
2023-02-06T07:16:05.608Z,21.65
2023-02-06T07:18:32.765Z,25.50
2023-02-06T07:20:59.384Z,18.88
2023-02-06T07:23:26.036Z,38.17
2023-02-06T07:25:52.849Z,18.40
2023-02-06T07:28:19.613Z,22.08
2023-02-06T07:30:46.356Z,24.13
2023-02-06T07:33:13.120Z,17.98
2023-02-06T07:35:50.446Z,20.42
2023-02-06T07:38:17.690Z,20.75
2023-02-06T07:40:45.508Z,29.45
2023-02-06T07:43:12.650Z,19.38
2023-02-06T07:45:39.670Z,23.02
2023-02-06T07:48:06.600Z,23.63
2023-02-06T07:50:33.310Z,23.33
2023-02-06T07:53:00.128Z,22.13
2023-02-06T07:55:26.780Z,21.92
2023-02-06T07:57:53.780Z,23.48
2023-02-06T08:00:20.435Z,19.50
2023-02-06T08:02:47.162Z,17.58
2023-02-06T08:05:16.045Z,19.20
2023-02-06T08:07:42.923Z,19.33
2023-02-06T08:10:09.601Z,14.50
2023-02-06T08:12:36.273Z,21.52
2023-02-06T08:15:02.930Z,14.82
2023-02-06T08:17:29.666Z,19.33
2023-02-06T08:19:56.337Z,17.85
2023-02-06T08:22:23.118Z,21.73
2023-02-06T08:24:49.999Z,25.30
2023-02-06T08:27:17.971Z,20.48
2023-02-06T08:29:44.819Z,25.67
2023-02-06T08:32:11.557Z,17.98
2023-02-06T08:34:38.248Z,18.73
2023-02-06T08:37:05.068Z,20.48
2023-02-06T08:39:31.735Z,19.40
2023-02-06T08:41:58.471Z,21.27
2023-02-06T08:44:25.169Z,19.75
2023-02-06T08:46:58.840Z,19.20
2023-02-06T08:49:31.489Z,21.85
2023-02-06T08:51:58.141Z,19.20
2023-02-06T08:54:24.827Z,19.85
2023-02-06T08:56:51.935Z,18.67
2023-02-06T08:59:18.659Z,28.27
2023-02-06T09:01:49.455Z,20.67
2023-02-06T09:04:16.192Z,22.90
2023-02-06T09:06:44.315Z,32.92
2023-02-06T09:09:11.056Z,30.58
2023-02-06T09:11:37.754Z,28.88
2023-02-06T09:14:04.403Z,31.90
2023-02-06T09:16:33.297Z,26.75
2023-02-06T09:19:03.103Z,24.95
2023-02-06T09:23:56.567Z,23.35
2023-02-06T09:26:23.422Z,22.40
2023-02-06T09:28:50.101Z,28.08
2023-02-06T09:31:16.932Z,26.63
2023-02-06T09:33:43.688Z,26.25
2023-02-06T09:36:10.441Z,24.08
2023-02-06T09:38:37.167Z,23.63
2023-02-06T09:41:04.118Z,20.50
2023-02-06T09:43:30.790Z,18.40
2023-02-06T09:45:57.406Z,25.60
2023-02-06T09:48:24.396Z,24.15
2023-02-06T09:50:51.088Z,19.77
2023-02-06T09:53:17.731Z,19.15
2023-02-06T09:55:44.461Z,24.60
2023-02-06T09:58:13.318Z,16.45
2023-02-06T10:00:41.504Z,16.53
2023-02-06T10:03:08.308Z,18.40
2023-02-06T10:05:36.704Z,24.10
2023-02-06T10:08:03.765Z,19.33
2023-02-06T10:10:30.413Z,18.45
2023-02-06T10:12:57.139Z,17.45
2023-02-06T10:15:24.338Z,17.40
2023-02-06T10:17:51.119Z,19.17
2023-02-06T10:20:17.987Z,26.85
2023-02-06T10:22:44.691Z,23.20
2023-02-06T10:25:11.425Z,24.33
2023-02-06T10:27:56.842Z,21.98
2023-02-06T10:30:23.570Z,17.05
2023-02-06T10:32:53.319Z,16.70
2023-02-06T10:35:20.004Z,16.92
2023-02-06T10:37:47.813Z,15.60
2023-02-06T10:40:14.601Z,20.73
2023-02-06T10:42:41.242Z,16.30
2023-02-06T10:45:20.119Z,15.70
2023-02-06T10:48:05.975Z,15.73
2023-02-06T10:50:32.647Z,14.63
2023-02-06T10:52:59.400Z,17.17
2023-02-06T10:55:26.653Z,12.77
2023-02-06T10:57:53.425Z,14.93
2023-02-06T11:00:20.209Z,13.05
2023-02-06T11:02:52.794Z,9.82
2023-02-06T11:05:28.238Z,14.38
2023-02-06T11:07:57.176Z,15.10
2023-02-06T11:10:23.835Z,11.60
2023-02-06T11:12:51.264Z,9.68
2023-02-06T11:15:17.954Z,11.27
2023-02-06T11:17:44.840Z,12.65
2023-02-06T11:20:11.789Z,11.85
2023-02-06T11:22:51.086Z,8.07
2023-02-06T11:25:19.404Z,9.45
2023-02-06T11:27:46.272Z,10.30
2023-02-06T11:30:15.299Z,10.77
2023-02-06T11:32:52.807Z,10.57
2023-02-06T11:35:25.829Z,8.98
2023-02-06T11:37:52.624Z,11.48
2023-02-06T11:40:19.613Z,8.70
2023-02-06T11:42:46.350Z,9.85
2023-02-06T11:45:13.040Z,12.73
2023-02-06T11:47:41.119Z,8.10
2023-02-06T11:50:08.039Z,11.65
2023-02-06T11:52:34.821Z,6.95
2023-02-06T11:55:02.822Z,5.75
2023-02-06T11:57:30.728Z,10.02
2023-02-06T11:59:57.341Z,8.73
2023-02-06T12:02:24.031Z,9.85
2023-02-06T12:04:50.742Z,7.65
2023-02-06T12:07:17.655Z,8.38
2023-02-06T12:09:44.399Z,13.63
2023-02-06T12:12:11.267Z,10.82
2023-02-06T12:14:38.157Z,7.28
2023-02-06T12:17:06.963Z,14.02
2023-02-06T12:19:36.131Z,11.95
2023-02-06T12:22:02.807Z,8.27
2023-02-06T12:24:29.515Z,7.35
2023-02-06T12:26:56.390Z,6.95
2023-02-06T12:29:23.128Z,11.10
2023-02-06T12:31:53.872Z,9.02
2023-02-06T12:34:20.705Z,8.88
2023-02-06T12:36:53.491Z,14.75
2023-02-06T12:39:20.335Z,10.63
2023-02-06T12:41:47.112Z,8.77
2023-02-06T12:44:13.901Z,10.35
2023-02-06T12:46:41.881Z,9.75
2023-02-06T12:49:08.655Z,13.52
2023-02-06T12:51:36.208Z,10.85
2023-02-06T12:54:02.960Z,11.20
2023-02-06T12:56:29.859Z,13.25
2023-02-06T12:58:57.069Z,14.32
2023-02-06T13:01:30.742Z,10.43
2023-02-06T13:03:59.632Z,16.50
2023-02-06T13:06:27.528Z,13.43
2023-02-06T13:08:56.107Z,10.75
2023-02-06T13:11:22.848Z,10.35
2023-02-06T13:13:52.817Z,12.98
2023-02-06T13:16:19.790Z,7.57
2023-02-06T13:18:50.598Z,17.25
2023-02-06T13:21:17.267Z,11.98
2023-02-06T13:23:43.978Z,9.93
2023-02-06T13:26:10.819Z,8.40
2023-02-06T13:28:37.429Z,8.18
2023-02-06T13:31:04.265Z,9.45
2023-02-06T13:33:31.005Z,9.82
2023-02-06T13:35:57.834Z,11.27
2023-02-06T13:38:24.626Z,9.00
2023-02-06T13:40:51.900Z,12.25
2023-02-06T13:43:18.715Z,5.82
2023-02-06T13:45:45.460Z,8.65
2023-02-06T13:48:13.399Z,11.07
2023-02-06T13:50:40.164Z,11.80
2023-02-06T13:53:07.110Z,6.22
2023-02-06T13:55:34.067Z,7.80
2023-02-06T13:58:03.046Z,8.40
2023-02-06T14:00:30.350Z,11.13
2023-02-06T14:02:57.089Z,7.35
2023-02-06T14:05:23.796Z,7.50
2023-02-06T14:07:50.827Z,6.95
2023-02-06T14:10:17.672Z,8.27
2023-02-06T14:12:44.522Z,11.73
2023-02-06T14:15:11.269Z,7.90
2023-02-06T14:17:58.039Z,8.77
2023-02-06T14:20:24.990Z,6.90
2023-02-06T14:22:51.821Z,9.32
2023-02-06T14:25:18.642Z,8.02
2023-02-06T14:27:49.813Z,5.93
2023-02-06T14:30:16.618Z,6.88
2023-02-06T14:32:43.402Z,7.72
2023-02-06T14:35:10.925Z,7.00
2023-02-06T14:37:56.425Z,9.55
2023-02-06T14:40:23.358Z,6.82
2023-02-06T14:42:50.060Z,10.77
2023-02-06T14:45:16.725Z,7.88
2023-02-06T14:48:02.631Z,5.60
2023-02-06T14:50:29.450Z,5.40
2023-02-06T14:52:56.116Z,7.00
2023-02-06T14:55:22.876Z,6.85
2023-02-06T14:57:51.343Z,6.40
2023-02-06T15:00:18.031Z,7.70
2023-02-06T15:02:44.716Z,10.88
2023-02-06T15:05:11.412Z,12.73
2023-02-06T15:07:39.456Z,6.93
2023-02-06T15:10:06.765Z,10.13
2023-02-06T15:12:33.684Z,7.72
2023-02-06T15:15:05.279Z,11.10
2023-02-06T15:17:35.182Z,8.85
2023-02-06T15:20:01.894Z,10.88
2023-02-06T15:22:28.637Z,7.50
2023-02-06T15:24:55.363Z,10.93
2023-02-06T15:27:22.267Z,9.82
2023-02-06T15:29:49.726Z,7.03
2023-02-06T15:32:16.417Z,6.47
2023-02-06T15:34:43.215Z,8.85
2023-02-06T15:37:11.208Z,19.38
2023-02-06T15:39:40.336Z,9.25
2023-02-06T15:42:07.216Z,6.15
2023-02-06T15:44:33.900Z,8.60
2023-02-06T15:47:00.733Z,8.73
2023-02-06T15:49:27.425Z,11.98
2023-02-06T15:51:54.918Z,14.25
2023-02-06T15:54:22.386Z,8.80
2023-02-06T15:56:49.399Z,11.30
2023-02-06T15:59:16.097Z,7.97
2023-02-06T16:01:42.812Z,6.28
2023-02-06T16:04:09.527Z,5.65
2023-02-06T16:06:37.489Z,6.80
2023-02-06T16:09:07.335Z,11.60
2023-02-06T16:11:51.172Z,6.40
2023-02-06T16:14:18.185Z,7.70
2023-02-06T16:16:45.030Z,8.45
2023-02-06T16:19:11.936Z,6.95
2023-02-06T16:21:42.149Z,10.88
2023-02-06T16:24:09.038Z,11.40
2023-02-06T16:26:35.832Z,8.88
2023-02-06T16:29:02.557Z,8.40
2023-02-06T16:31:29.500Z,7.35
2023-02-06T16:33:56.352Z,7.57
2023-02-06T16:36:26.173Z,5.55
2023-02-06T16:39:03.802Z,7.43
2023-02-06T16:41:31.633Z,9.07
2023-02-06T16:43:58.412Z,7.38
2023-02-06T16:46:25.279Z,8.50
2023-02-06T16:48:51.997Z,8.25
2023-02-06T16:51:18.734Z,9.43
2023-02-06T16:53:45.566Z,10.85
2023-02-06T16:56:12.883Z,11.52
2023-02-06T16:58:39.583Z,11.02
2023-02-06T17:01:08.502Z,9.15
2023-02-06T17:03:37.804Z,9.10
2023-02-06T17:06:04.642Z,9.07
2023-02-06T17:08:31.321Z,30.13
2023-02-06T17:10:58.081Z,27.48
2023-02-06T17:13:24.856Z,26.17
2023-02-06T17:15:54.460Z,22.98
2023-02-06T17:20:49.358Z,17.77
2023-02-06T17:23:16.024Z,12.88
2023-02-06T17:25:42.794Z,12.90
2023-02-06T17:28:10.764Z,14.75
2023-02-06T17:30:38.123Z,11.68
2023-02-06T17:33:04.988Z,10.90
2023-02-06T17:35:31.839Z,16.65
2023-02-06T17:37:58.787Z,8.77
2023-02-06T17:40:28.106Z,17.02
2023-02-06T17:42:54.828Z,14.15
2023-02-06T17:45:21.522Z,14.40
2023-02-06T17:47:50.411Z,13.13
2023-02-06T17:50:17.125Z,14.70
2023-02-06T17:52:43.794Z,14.90
2023-02-06T17:55:10.574Z,12.57
2023-02-06T17:57:37.474Z,14.07
2023-02-06T18:00:04.783Z,14.05
2023-02-06T18:02:31.753Z,13.18
2023-02-06T18:04:59.949Z,16.13
2023-02-06T18:07:28.898Z,13.90
2023-02-06T18:09:55.686Z,24.50
2023-02-06T18:12:22.384Z,17.05
2023-02-06T18:14:50.036Z,16.88
2023-02-06T18:17:16.788Z,23.80
2023-02-06T18:19:44.162Z,16.80
2023-02-06T18:22:10.839Z,18.42
2023-02-06T18:24:37.523Z,20.63
2023-02-06T18:27:05.614Z,19.25
2023-02-06T18:29:43.627Z,22.98
2023-02-06T18:32:15.476Z,19.52
2023-02-06T18:34:42.355Z,15.48
2023-02-06T18:37:10.164Z,24.70
2023-02-06T18:39:36.909Z,16.08
2023-02-06T18:42:22.551Z,19.08
2023-02-06T18:44:49.219Z,21.60
2023-02-06T18:47:17.541Z,24.15
2023-02-06T18:49:44.244Z,16.95
2023-02-06T18:52:10.842Z,21.00
2023-02-06T18:54:39.783Z,19.30
2023-02-06T18:57:06.472Z,19.43
2023-02-06T18:59:33.079Z,21.30
2023-02-06T19:01:59.802Z,18.52
2023-02-06T19:04:26.513Z,26.15
2023-02-06T19:06:53.304Z,27.67
2023-02-06T19:09:20.207Z,21.17
2023-02-06T19:11:46.891Z,24.48
2023-02-06T19:14:15.132Z,20.35
2023-02-06T19:16:44.539Z,25.42
2023-02-06T19:19:11.426Z,16.30
2023-02-06T19:21:38.145Z,17.13
2023-02-06T19:24:04.803Z,20.20
2023-02-06T19:26:31.810Z,19.80
2023-02-06T19:28:58.594Z,26.95
2023-02-06T19:31:25.361Z,28.10
2023-02-06T19:33:52.062Z,34.50
2023-02-06T19:36:20.934Z,38.17
2023-02-06T19:38:47.874Z,32.67
2023-02-06T19:41:14.565Z,36.35
2023-02-06T19:43:41.311Z,35.08
2023-02-06T19:46:08.098Z,37.35
2023-02-06T19:48:34.761Z,27.73
2023-02-06T19:51:01.427Z,33.45
2023-02-06T19:53:28.164Z,28.58
2023-02-06T19:55:54.840Z,24.23
2023-02-06T19:58:21.628Z,29.35
2023-02-06T20:00:49.615Z,29.65
2023-02-06T20:03:17.028Z,30.90
2023-02-06T20:05:44.415Z,22.10
2023-02-06T20:08:12.410Z,23.60
2023-02-06T20:10:39.387Z,23.08
2023-02-06T20:13:08.463Z,24.88
2023-02-06T20:15:35.097Z,38.07
2023-02-06T20:18:01.993Z,26.52
2023-02-06T20:20:28.959Z,32.00
2023-02-06T20:22:55.874Z,29.15
2023-02-06T20:25:23.810Z,25.08
2023-02-06T20:27:52.778Z,28.02
2023-02-06T20:30:19.710Z,24.10
2023-02-06T20:32:46.440Z,20.13
2023-02-06T20:35:13.132Z,25.60
2023-02-06T20:37:40.061Z,23.27
2023-02-06T20:40:06.725Z,28.23
2023-02-06T20:42:34.688Z,19.08
2023-02-06T20:45:01.415Z,22.35
2023-02-06T20:47:29.692Z,22.02
2023-02-06T20:50:00.304Z,28.10
2023-02-06T20:52:27.137Z,24.40
2023-02-06T20:54:53.819Z,33.88
2023-02-06T20:57:23.028Z,32.97
2023-02-06T20:59:49.710Z,27.40
2023-02-06T21:02:23.823Z,26.70
2023-02-06T21:04:52.393Z,20.15
2023-02-06T21:07:20.644Z,26.05
2023-02-06T21:09:47.510Z,20.00
2023-02-06T21:12:14.279Z,27.30
2023-02-06T21:14:41.762Z,22.10
2023-02-06T21:17:09.584Z,21.40
2023-02-06T21:19:36.307Z,19.80
2023-02-06T21:22:03.127Z,17.13
2023-02-06T21:24:29.920Z,18.15
2023-02-06T21:26:58.816Z,16.80
2023-02-06T21:29:25.551Z,20.60
2023-02-06T21:32:00.627Z,15.80
2023-02-06T21:34:34.179Z,20.58
2023-02-06T21:37:00.983Z,21.50
2023-02-06T21:39:28.785Z,17.83
2023-02-06T21:41:55.426Z,15.77
2023-02-06T21:44:23.887Z,18.83
2023-02-06T21:46:50.861Z,17.02
2023-02-06T21:49:17.744Z,23.98
2023-02-06T21:51:44.399Z,22.27
2023-02-06T21:54:11.105Z,28.80
2023-02-06T21:56:40.664Z,14.43
2023-02-06T21:59:07.371Z,19.45
2023-02-06T22:01:34.993Z,25.08
2023-02-06T22:04:01.710Z,19.80
2023-02-06T22:06:29.623Z,14.60
2023-02-06T22:08:56.518Z,22.17
2023-02-06T22:11:23.162Z,24.38
2023-02-06T22:13:49.894Z,20.92
2023-02-06T22:16:16.599Z,23.75
2023-02-06T22:18:43.320Z,19.85
2023-02-06T22:21:09.966Z,17.23
2023-02-06T22:23:36.620Z,24.13
2023-02-06T22:26:03.334Z,14.15
2023-02-06T22:28:31.159Z,18.33
2023-02-06T22:30:57.887Z,19.20
2023-02-06T22:33:24.611Z,20.83
2023-02-06T22:35:51.323Z,18.02
2023-02-06T22:38:18.217Z,22.00
2023-02-06T22:40:47.366Z,18.20
2023-02-06T22:43:14.159Z,15.15
2023-02-06T22:45:40.802Z,16.45
2023-02-06T22:48:07.701Z,18.83
2023-02-06T22:50:34.416Z,23.70
2023-02-06T22:53:19.916Z,17.40
2023-02-06T22:56:05.393Z,17.25
2023-02-06T22:58:32.016Z,19.88
2023-02-06T23:00:58.738Z,22.10
2023-02-06T23:03:25.441Z,21.77
2023-02-06T23:05:52.103Z,21.17
2023-02-06T23:08:19.938Z,21.17
2023-02-06T23:10:46.538Z,20.23
2023-02-06T23:13:13.275Z,25.13
2023-02-06T23:15:41.433Z,16.75
2023-02-06T23:18:08.496Z,20.30
2023-02-06T23:20:35.165Z,27.92
2023-02-06T23:23:01.861Z,19.05
2023-02-06T23:25:28.500Z,23.38
2023-02-06T23:27:56.230Z,22.38
2023-02-06T23:30:22.972Z,19.83
2023-02-06T23:32:49.795Z,18.45
2023-02-06T23:35:16.436Z,20.13
2023-02-06T23:37:43.267Z,22.50
2023-02-06T23:40:09.967Z,13.38
2023-02-06T23:42:36.656Z,15.38
2023-02-06T23:45:03.346Z,20.45
2023-02-06T23:47:32.166Z,17.13
2023-02-06T23:49:58.910Z,15.63
2023-02-06T23:52:25.617Z,13.73
2023-02-06T23:54:52.260Z,15.18
2023-02-06T23:57:20.134Z,15.30
2023-02-06T23:59:46.872Z,15.35
